sensor_id;sensor_type;location;lat;lon;timestamp;P1;durP1;ratioP1;P2;durP2;ratioP2
18610;SDS011;9435;52.122;5.502;2023-05-13T00:01:43;10.73;;;6.93;;
18610;SDS011;9435;52.122;5.502;2023-05-13T00:04:10;12.40;;;6.85;;
18610;SDS011;9435;52.122;5.502;2023-05-13T00:06:39;9.75;;;6.90;;
18610;SDS011;9435;52.122;5.502;2023-05-13T00:09:06;11.77;;;7.40;;
18610;SDS011;9435;52.122;5.502;2023-05-13T00:11:33;9.82;;;7.28;;
18610;SDS011;9435;52.122;5.502;2023-05-13T00:14:00;13.98;;;7.47;;
18610;SDS011;9435;52.122;5.502;2023-05-13T00:16:28;12.32;;;7.40;;
18610;SDS011;9435;52.122;5.502;2023-05-13T00:18:55;9.75;;;6.80;;
18610;SDS011;9435;52.122;5.502;2023-05-13T00:21:22;11.75;;;6.88;;
18610;SDS011;9435;52.122;5.502;2023-05-13T00:23:50;9.82;;;6.50;;
18610;SDS011;9435;52.122;5.502;2023-05-13T00:26:17;12.75;;;6.82;;
18610;SDS011;9435;52.122;5.502;2023-05-13T00:28:44;10.32;;;6.70;;
18610;SDS011;9435;52.122;5.502;2023-05-13T00:31:11;9.85;;;6.90;;
18610;SDS011;9435;52.122;5.502;2023-05-13T00:33:38;14.00;;;7.10;;
18610;SDS011;9435;52.122;5.502;2023-05-13T00:36:05;13.32;;;7.20;;
18610;SDS011;9435;52.122;5.502;2023-05-13T00:38:34;14.38;;;7.30;;
18610;SDS011;9435;52.122;5.502;2023-05-13T00:41:02;11.57;;;7.32;;
18610;SDS011;9435;52.122;5.502;2023-05-13T00:43:29;12.07;;;6.90;;
18610;SDS011;9435;52.122;5.502;2023-05-13T00:45:57;9.10;;;6.40;;
18610;SDS011;9435;52.122;5.502;2023-05-13T00:48:25;13.00;;;7.05;;
18610;SDS011;9435;52.122;5.502;2023-05-13T00:50:52;10.80;;;7.10;;
18610;SDS011;9435;52.122;5.502;2023-05-13T00:53:19;10.70;;;6.95;;
18610;SDS011;9435;52.122;5.502;2023-05-13T00:55:46;9.40;;;6.50;;
18610;SDS011;9435;52.122;5.502;2023-05-13T00:58:15;12.82;;;7.55;;
18610;SDS011;9435;52.122;5.502;2023-05-13T01:00:44;11.50;;;6.80;;
18610;SDS011;9435;52.122;5.502;2023-05-13T01:03:18;9.55;;;6.80;;
18610;SDS011;9435;52.122;5.502;2023-05-13T01:05:53;12.57;;;7.35;;
18610;SDS011;9435;52.122;5.502;2023-05-13T01:08:32;11.35;;;7.03;;
18610;SDS011;9435;52.122;5.502;2023-05-13T01:11:06;12.70;;;7.50;;
18610;SDS011;9435;52.122;5.502;2023-05-13T01:13:38;11.50;;;7.35;;
18610;SDS011;9435;52.122;5.502;2023-05-13T01:16:10;11.65;;;7.85;;
18610;SDS011;9435;52.122;5.502;2023-05-13T01:18:42;12.63;;;8.10;;
18610;SDS011;9435;52.122;5.502;2023-05-13T01:21:11;12.23;;;7.22;;
18610;SDS011;9435;52.122;5.502;2023-05-13T01:23:40;13.45;;;8.20;;
18610;SDS011;9435;52.122;5.502;2023-05-13T01:26:07;11.25;;;7.95;;
18610;SDS011;9435;52.122;5.502;2023-05-13T01:28:34;13.23;;;8.48;;
18610;SDS011;9435;52.122;5.502;2023-05-13T01:31:01;13.55;;;7.78;;
18610;SDS011;9435;52.122;5.502;2023-05-13T01:33:28;11.10;;;7.75;;
18610;SDS011;9435;52.122;5.502;2023-05-13T01:35:56;11.48;;;7.80;;
18610;SDS011;9435;52.122;5.502;2023-05-13T01:38:23;14.15;;;8.55;;
18610;SDS011;9435;52.122;5.502;2023-05-13T01:40:53;14.18;;;8.60;;
18610;SDS011;9435;52.122;5.502;2023-05-13T01:43:21;12.85;;;8.85;;
18610;SDS011;9435;52.122;5.502;2023-05-13T01:45:48;18.30;;;9.63;;
18610;SDS011;9435;52.122;5.502;2023-05-13T01:48:15;13.02;;;8.98;;
18610;SDS011;9435;52.122;5.502;2023-05-13T01:50:44;15.32;;;9.00;;
18610;SDS011;9435;52.122;5.502;2023-05-13T01:53:11;15.45;;;9.27;;
18610;SDS011;9435;52.122;5.502;2023-05-13T01:55:38;13.05;;;9.25;;
18610;SDS011;9435;52.122;5.502;2023-05-13T01:58:07;13.95;;;9.50;;
18610;SDS011;9435;52.122;5.502;2023-05-13T02:00:34;14.15;;;9.57;;
18610;SDS011;9435;52.122;5.502;2023-05-13T02:03:01;15.07;;;9.90;;
18610;SDS011;9435;52.122;5.502;2023-05-13T02:05:28;15.50;;;10.30;;
18610;SDS011;9435;52.122;5.502;2023-05-13T02:07:55;15.77;;;10.57;;
18610;SDS011;9435;52.122;5.502;2023-05-13T02:10:22;15.27;;;10.35;;
18610;SDS011;9435;52.122;5.502;2023-05-13T02:12:49;15.57;;;10.45;;
18610;SDS011;9435;52.122;5.502;2023-05-13T02:15:18;17.90;;;10.77;;
18610;SDS011;9435;52.122;5.502;2023-05-13T02:17:45;16.30;;;10.68;;
18610;SDS011;9435;52.122;5.502;2023-05-13T02:20:12;14.98;;;10.70;;
18610;SDS011;9435;52.122;5.502;2023-05-13T02:22:40;18.05;;;11.45;;
18610;SDS011;9435;52.122;5.502;2023-05-13T02:25:07;16.92;;;11.07;;
18610;SDS011;9435;52.122;5.502;2023-05-13T02:27:34;16.40;;;11.48;;
18610;SDS011;9435;52.122;5.502;2023-05-13T02:30:02;16.10;;;11.07;;
18610;SDS011;9435;52.122;5.502;2023-05-13T02:32:31;16.80;;;11.38;;
18610;SDS011;9435;52.122;5.502;2023-05-13T02:34:58;16.30;;;11.45;;
18610;SDS011;9435;52.122;5.502;2023-05-13T02:37:25;19.90;;;11.50;;
18610;SDS011;9435;52.122;5.502;2023-05-13T02:39:52;19.55;;;12.30;;
18610;SDS011;9435;52.122;5.502;2023-05-13T02:42:19;20.80;;;12.07;;
18610;SDS011;9435;52.122;5.502;2023-05-13T02:44:46;18.55;;;11.60;;
18610;SDS011;9435;52.122;5.502;2023-05-13T02:47:13;19.55;;;11.73;;
18610;SDS011;9435;52.122;5.502;2023-05-13T02:49:42;17.58;;;11.95;;
18610;SDS011;9435;52.122;5.502;2023-05-13T02:52:09;18.25;;;11.82;;
18610;SDS011;9435;52.122;5.502;2023-05-13T02:54:36;19.40;;;11.82;;
18610;SDS011;9435;52.122;5.502;2023-05-13T02:57:03;19.10;;;12.20;;
18610;SDS011;9435;52.122;5.502;2023-05-13T02:59:30;17.52;;;11.40;;
18610;SDS011;9435;52.122;5.502;2023-05-13T03:01:57;18.80;;;11.95;;
18610;SDS011;9435;52.122;5.502;2023-05-13T03:04:24;17.73;;;12.02;;
18610;SDS011;9435;52.122;5.502;2023-05-13T03:06:53;17.25;;;12.20;;
18610;SDS011;9435;52.122;5.502;2023-05-13T03:09:20;16.90;;;12.10;;
18610;SDS011;9435;52.122;5.502;2023-05-13T03:11:47;19.55;;;12.88;;
18610;SDS011;9435;52.122;5.502;2023-05-13T03:14:14;19.88;;;12.98;;
18610;SDS011;9435;52.122;5.502;2023-05-13T03:16:41;21.20;;;12.93;;
18610;SDS011;9435;52.122;5.502;2023-05-13T03:19:09;21.30;;;12.73;;
18610;SDS011;9435;52.122;5.502;2023-05-13T03:21:36;20.40;;;13.80;;
18610;SDS011;9435;52.122;5.502;2023-05-13T03:24:05;22.52;;;13.70;;
18610;SDS011;9435;52.122;5.502;2023-05-13T03:26:32;18.98;;;13.45;;
18610;SDS011;9435;52.122;5.502;2023-05-13T03:28:59;20.92;;;13.40;;
18610;SDS011;9435;52.122;5.502;2023-05-13T03:31:27;23.45;;;13.77;;
18610;SDS011;9435;52.122;5.502;2023-05-13T03:33:54;20.17;;;13.48;;
18610;SDS011;9435;52.122;5.502;2023-05-13T03:36:21;22.80;;;13.77;;
18610;SDS011;9435;52.122;5.502;2023-05-13T03:38:48;23.77;;;14.45;;
18610;SDS011;9435;52.122;5.502;2023-05-13T03:41:16;26.95;;;14.82;;
18610;SDS011;9435;52.122;5.502;2023-05-13T03:43:44;23.23;;;14.50;;
18610;SDS011;9435;52.122;5.502;2023-05-13T03:46:11;21.60;;;13.85;;
18610;SDS011;9435;52.122;5.502;2023-05-13T03:48:38;23.48;;;14.00;;
18610;SDS011;9435;52.122;5.502;2023-05-13T03:51:05;20.85;;;13.63;;
18610;SDS011;9435;52.122;5.502;2023-05-13T03:53:32;21.85;;;14.07;;
18610;SDS011;9435;52.122;5.502;2023-05-13T03:56:00;20.90;;;14.23;;
18610;SDS011;9435;52.122;5.502;2023-05-13T03:58:28;22.70;;;14.23;;
18610;SDS011;9435;52.122;5.502;2023-05-13T04:00:55;25.58;;;14.70;;
18610;SDS011;9435;52.122;5.502;2023-05-13T04:03:22;20.55;;;14.80;;
18610;SDS011;9435;52.122;5.502;2023-05-13T04:05:50;23.25;;;15.18;;
18610;SDS011;9435;52.122;5.502;2023-05-13T04:08:17;24.10;;;15.05;;
18610;SDS011;9435;52.122;5.502;2023-05-13T04:10:44;24.77;;;15.38;;
18610;SDS011;9435;52.122;5.502;2023-05-13T04:13:11;22.70;;;15.18;;
18610;SDS011;9435;52.122;5.502;2023-05-13T04:15:40;25.30;;;15.75;;
18610;SDS011;9435;52.122;5.502;2023-05-13T04:18:07;23.85;;;15.82;;
18610;SDS011;9435;52.122;5.502;2023-05-13T04:20:36;26.13;;;16.13;;
18610;SDS011;9435;52.122;5.502;2023-05-13T04:23:03;26.52;;;16.92;;
18610;SDS011;9435;52.122;5.502;2023-05-13T04:25:30;26.05;;;16.45;;
18610;SDS011;9435;52.122;5.502;2023-05-13T04:27:57;24.23;;;15.70;;
18610;SDS011;9435;52.122;5.502;2023-05-13T04:30:25;24.27;;;16.40;;
18610;SDS011;9435;52.122;5.502;2023-05-13T04:32:53;27.80;;;17.08;;
18610;SDS011;9435;52.122;5.502;2023-05-13T04:35:20;31.00;;;17.58;;
18610;SDS011;9435;52.122;5.502;2023-05-13T04:37:47;27.63;;;17.13;;
18610;SDS011;9435;52.122;5.502;2023-05-13T04:40:14;25.60;;;17.05;;
18610;SDS011;9435;52.122;5.502;2023-05-13T04:42:42;29.30;;;17.63;;
18610;SDS011;9435;52.122;5.502;2023-05-13T04:45:09;27.50;;;17.23;;
18610;SDS011;9435;52.122;5.502;2023-05-13T04:47:36;28.27;;;17.27;;
18610;SDS011;9435;52.122;5.502;2023-05-13T04:50:05;26.67;;;16.77;;
18610;SDS011;9435;52.122;5.502;2023-05-13T04:52:32;26.38;;;17.33;;
18610;SDS011;9435;52.122;5.502;2023-05-13T04:55:01;28.15;;;17.30;;
18610;SDS011;9435;52.122;5.502;2023-05-13T04:57:28;25.58;;;17.65;;
18610;SDS011;9435;52.122;5.502;2023-05-13T04:59:55;26.05;;;17.33;;
18610;SDS011;9435;52.122;5.502;2023-05-13T05:02:22;28.25;;;17.67;;
18610;SDS011;9435;52.122;5.502;2023-05-13T05:04:49;28.60;;;17.20;;
18610;SDS011;9435;52.122;5.502;2023-05-13T05:07:18;28.50;;;17.38;;
18610;SDS011;9435;52.122;5.502;2023-05-13T05:09:45;29.58;;;18.52;;
18610;SDS011;9435;52.122;5.502;2023-05-13T05:12:12;26.92;;;17.65;;
18610;SDS011;9435;52.122;5.502;2023-05-13T05:14:39;29.08;;;18.40;;
18610;SDS011;9435;52.122;5.502;2023-05-13T05:17:06;33.17;;;18.80;;
18610;SDS011;9435;52.122;5.502;2023-05-13T05:19:33;36.33;;;18.70;;
18610;SDS011;9435;52.122;5.502;2023-05-13T05:22:00;28.05;;;18.55;;
18610;SDS011;9435;52.122;5.502;2023-05-13T05:24:30;26.02;;;17.70;;
18610;SDS011;9435;52.122;5.502;2023-05-13T05:26:57;29.95;;;18.85;;
18610;SDS011;9435;52.122;5.502;2023-05-13T05:29:24;29.92;;;18.25;;
18610;SDS011;9435;52.122;5.502;2023-05-13T05:31:52;28.98;;;18.88;;
18610;SDS011;9435;52.122;5.502;2023-05-13T05:34:19;29.80;;;18.55;;
18610;SDS011;9435;52.122;5.502;2023-05-13T05:36:46;29.95;;;18.55;;
18610;SDS011;9435;52.122;5.502;2023-05-13T05:39:13;26.58;;;17.88;;
18610;SDS011;9435;52.122;5.502;2023-05-13T05:41:41;28.30;;;17.80;;
18610;SDS011;9435;52.122;5.502;2023-05-13T05:44:09;28.30;;;17.27;;
18610;SDS011;9435;52.122;5.502;2023-05-13T05:46:37;25.88;;;17.08;;
18610;SDS011;9435;52.122;5.502;2023-05-13T05:49:04;30.05;;;17.23;;
18610;SDS011;9435;52.122;5.502;2023-05-13T05:51:32;26.40;;;16.70;;
18610;SDS011;9435;52.122;5.502;2023-05-13T05:54:00;27.63;;;17.50;;
18610;SDS011;9435;52.122;5.502;2023-05-13T05:56:27;27.48;;;16.95;;
18610;SDS011;9435;52.122;5.502;2023-05-13T05:58:56;25.60;;;16.63;;
18610;SDS011;9435;52.122;5.502;2023-05-13T06:01:23;25.05;;;16.52;;
18610;SDS011;9435;52.122;5.502;2023-05-13T06:03:50;28.45;;;16.75;;
18610;SDS011;9435;52.122;5.502;2023-05-13T06:06:17;27.13;;;15.75;;
18610;SDS011;9435;52.122;5.502;2023-05-13T06:08:44;24.17;;;16.20;;
18610;SDS011;9435;52.122;5.502;2023-05-13T06:11:11;26.50;;;16.08;;
18610;SDS011;9435;52.122;5.502;2023-05-13T06:13:38;22.90;;;16.00;;
18610;SDS011;9435;52.122;5.502;2023-05-13T06:16:07;21.95;;;15.07;;
18610;SDS011;9435;52.122;5.502;2023-05-13T06:18:35;21.75;;;14.57;;
18610;SDS011;9435;52.122;5.502;2023-05-13T06:21:03;23.63;;;15.40;;
18610;SDS011;9435;52.122;5.502;2023-05-13T06:23:30;24.33;;;15.23;;
18610;SDS011;9435;52.122;5.502;2023-05-13T06:25:57;20.23;;;14.23;;
18610;SDS011;9435;52.122;5.502;2023-05-13T06:28:24;22.65;;;14.40;;
18610;SDS011;9435;52.122;5.502;2023-05-13T06:30:51;21.85;;;14.70;;
18610;SDS011;9435;52.122;5.502;2023-05-13T06:33:20;25.08;;;14.75;;
18610;SDS011;9435;52.122;5.502;2023-05-13T06:35:47;21.83;;;14.23;;
18610;SDS011;9435;52.122;5.502;2023-05-13T06:38:14;24.15;;;14.18;;
18610;SDS011;9435;52.122;5.502;2023-05-13T06:40:42;21.27;;;13.80;;
18610;SDS011;9435;52.122;5.502;2023-05-13T06:43:09;23.35;;;14.38;;
18610;SDS011;9435;52.122;5.502;2023-05-13T06:45:38;21.77;;;14.57;;
18610;SDS011;9435;52.122;5.502;2023-05-13T06:48:05;21.73;;;14.38;;
18610;SDS011;9435;52.122;5.502;2023-05-13T06:50:34;21.45;;;14.43;;
18610;SDS011;9435;52.122;5.502;2023-05-13T06:53:01;25.08;;;13.98;;
18610;SDS011;9435;52.122;5.502;2023-05-13T06:55:28;23.08;;;14.30;;
18610;SDS011;9435;52.122;5.502;2023-05-13T06:57:55;22.13;;;14.63;;
18610;SDS011;9435;52.122;5.502;2023-05-13T07:00:23;20.33;;;14.73;;
18610;SDS011;9435;52.122;5.502;2023-05-13T07:02:50;21.60;;;13.57;;
18610;SDS011;9435;52.122;5.502;2023-05-13T07:05:17;18.63;;;12.70;;
18610;SDS011;9435;52.122;5.502;2023-05-13T07:07:46;18.58;;;13.15;;
18610;SDS011;9435;52.122;5.502;2023-05-13T07:10:17;21.70;;;13.25;;
18610;SDS011;9435;52.122;5.502;2023-05-13T07:12:44;21.38;;;13.80;;
18610;SDS011;9435;52.122;5.502;2023-05-13T07:15:11;19.52;;;12.88;;
18610;SDS011;9435;52.122;5.502;2023-05-13T07:17:38;21.80;;;12.82;;
18610;SDS011;9435;52.122;5.502;2023-05-13T07:20:06;18.58;;;12.35;;
18610;SDS011;9435;52.122;5.502;2023-05-13T07:22:34;19.38;;;12.35;;
18610;SDS011;9435;52.122;5.502;2023-05-13T07:25:02;23.05;;;12.75;;
18610;SDS011;9435;52.122;5.502;2023-05-13T07:27:30;23.90;;;12.88;;
18610;SDS011;9435;52.122;5.502;2023-05-13T07:29:57;19.63;;;12.38;;
18610;SDS011;9435;52.122;5.502;2023-05-13T07:32:24;16.80;;;11.90;;
18610;SDS011;9435;52.122;5.502;2023-05-13T07:34:51;17.77;;;11.88;;
18610;SDS011;9435;52.122;5.502;2023-05-13T07:37:18;18.48;;;11.98;;
18610;SDS011;9435;52.122;5.502;2023-05-13T07:39:45;18.23;;;11.90;;
18610;SDS011;9435;52.122;5.502;2023-05-13T07:42:13;16.30;;;11.48;;
18610;SDS011;9435;52.122;5.502;2023-05-13T07:44:40;19.90;;;11.85;;
18610;SDS011;9435;52.122;5.502;2023-05-13T07:47:08;20.80;;;12.52;;
18610;SDS011;9435;52.122;5.502;2023-05-13T07:49:35;18.17;;;11.90;;
18610;SDS011;9435;52.122;5.502;2023-05-13T07:52:02;15.32;;;11.23;;
18610;SDS011;9435;52.122;5.502;2023-05-13T07:54:29;17.40;;;11.13;;
18610;SDS011;9435;52.122;5.502;2023-05-13T07:56:56;18.95;;;11.48;;
18610;SDS011;9435;52.122;5.502;2023-05-13T07:59:24;17.15;;;11.07;;
18610;SDS011;9435;52.122;5.502;2023-05-13T08:01:51;16.40;;;10.65;;
18610;SDS011;9435;52.122;5.502;2023-05-13T08:04:19;16.27;;;10.73;;
18610;SDS011;9435;52.122;5.502;2023-05-13T08:06:46;15.93;;;10.80;;
18610;SDS011;9435;52.122;5.502;2023-05-13T08:09:13;17.65;;;11.05;;
18610;SDS011;9435;52.122;5.502;2023-05-13T08:11:40;14.27;;;10.60;;
18610;SDS011;9435;52.122;5.502;2023-05-13T08:14:07;15.20;;;10.50;;
18610;SDS011;9435;52.122;5.502;2023-05-13T08:16:35;15.25;;;10.60;;
18610;SDS011;9435;52.122;5.502;2023-05-13T08:19:02;18.35;;;11.55;;
18610;SDS011;9435;52.122;5.502;2023-05-13T08:21:29;14.98;;;10.73;;
18610;SDS011;9435;52.122;5.502;2023-05-13T08:23:56;15.70;;;10.77;;
18610;SDS011;9435;52.122;5.502;2023-05-13T08:26:24;14.18;;;10.65;;
18610;SDS011;9435;52.122;5.502;2023-05-13T08:28:51;15.80;;;10.70;;
18610;SDS011;9435;52.122;5.502;2023-05-13T08:31:18;19.40;;;11.20;;
18610;SDS011;9435;52.122;5.502;2023-05-13T08:33:46;18.50;;;11.00;;
18610;SDS011;9435;52.122;5.502;2023-05-13T08:36:13;17.90;;;11.35;;
18610;SDS011;9435;52.122;5.502;2023-05-13T08:38:41;15.77;;;11.38;;
18610;SDS011;9435;52.122;5.502;2023-05-13T08:41:08;16.13;;;11.15;;
18610;SDS011;9435;52.122;5.502;2023-05-13T08:43:37;16.77;;;10.57;;
18610;SDS011;9435;52.122;5.502;2023-05-13T08:46:05;17.67;;;11.50;;
18610;SDS011;9435;52.122;5.502;2023-05-13T08:48:35;20.02;;;11.60;;
18610;SDS011;9435;52.122;5.502;2023-05-13T08:51:04;18.38;;;11.90;;
18610;SDS011;9435;52.122;5.502;2023-05-13T08:53:32;18.20;;;11.85;;
18610;SDS011;9435;52.122;5.502;2023-05-13T08:56:00;20.08;;;12.10;;
18610;SDS011;9435;52.122;5.502;2023-05-13T08:58:27;17.30;;;11.70;;
18610;SDS011;9435;52.122;5.502;2023-05-13T09:00:54;18.05;;;12.45;;
18610;SDS011;9435;52.122;5.502;2023-05-13T09:03:22;16.40;;;11.75;;
18610;SDS011;9435;52.122;5.502;2023-05-13T09:05:52;21.10;;;12.15;;
18610;SDS011;9435;52.122;5.502;2023-05-13T09:08:21;17.90;;;11.30;;
18610;SDS011;9435;52.122;5.502;2023-05-13T09:10:48;15.85;;;11.82;;
18610;SDS011;9435;52.122;5.502;2023-05-13T09:13:15;17.27;;;11.90;;
18610;SDS011;9435;52.122;5.502;2023-05-13T09:15:43;15.57;;;11.45;;
18610;SDS011;9435;52.122;5.502;2023-05-13T09:18:10;18.05;;;11.02;;
18610;SDS011;9435;52.122;5.502;2023-05-13T09:20:38;17.75;;;11.20;;
18610;SDS011;9435;52.122;5.502;2023-05-13T09:23:05;17.38;;;11.55;;
18610;SDS011;9435;52.122;5.502;2023-05-13T09:25:35;15.30;;;11.10;;
18610;SDS011;9435;52.122;5.502;2023-05-13T09:28:03;19.35;;;11.60;;
18610;SDS011;9435;52.122;5.502;2023-05-13T09:30:32;17.05;;;11.10;;
18610;SDS011;9435;52.122;5.502;2023-05-13T09:33:05;18.00;;;10.75;;
18610;SDS011;9435;52.122;5.502;2023-05-13T09:35:34;13.88;;;10.32;;
18610;SDS011;9435;52.122;5.502;2023-05-13T09:38:10;14.18;;;9.95;;
18610;SDS011;9435;52.122;5.502;2023-05-13T09:40:39;15.63;;;10.30;;
18610;SDS011;9435;52.122;5.502;2023-05-13T09:43:07;16.65;;;10.73;;
18610;SDS011;9435;52.122;5.502;2023-05-13T09:45:34;14.40;;;10.48;;
18610;SDS011;9435;52.122;5.502;2023-05-13T09:48:01;15.88;;;10.38;;
18610;SDS011;9435;52.122;5.502;2023-05-13T09:50:30;14.98;;;10.35;;
18610;SDS011;9435;52.122;5.502;2023-05-13T09:52:58;16.55;;;10.18;;
18610;SDS011;9435;52.122;5.502;2023-05-13T09:55:35;14.93;;;10.07;;
18610;SDS011;9435;52.122;5.502;2023-05-13T09:58:09;14.00;;;10.88;;
18610;SDS011;9435;52.122;5.502;2023-05-13T10:00:37;19.38;;;11.38;;
18610;SDS011;9435;52.122;5.502;2023-05-13T10:03:05;16.30;;;10.50;;
18610;SDS011;9435;52.122;5.502;2023-05-13T10:05:32;15.35;;;10.23;;
18610;SDS011;9435;52.122;5.502;2023-05-13T10:08:00;16.27;;;9.40;;
18610;SDS011;9435;52.122;5.502;2023-05-13T10:10:28;15.73;;;10.57;;
18610;SDS011;9435;52.122;5.502;2023-05-13T10:12:57;13.30;;;9.52;;
18610;SDS011;9435;52.122;5.502;2023-05-13T10:15:30;17.55;;;10.40;;
18610;SDS011;9435;52.122;5.502;2023-05-13T10:17:57;13.43;;;10.43;;
18610;SDS011;9435;52.122;5.502;2023-05-13T10:20:25;17.50;;;10.70;;
18610;SDS011;9435;52.122;5.502;2023-05-13T10:22:52;14.80;;;9.98;;
18610;SDS011;9435;52.122;5.502;2023-05-13T10:25:20;22.30;;;10.77;;
18610;SDS011;9435;52.122;5.502;2023-05-13T10:27:48;16.80;;;10.52;;
18610;SDS011;9435;52.122;5.502;2023-05-13T10:30:18;15.32;;;10.32;;
18610;SDS011;9435;52.122;5.502;2023-05-13T10:32:51;14.77;;;10.35;;
18610;SDS011;9435;52.122;5.502;2023-05-13T10:35:19;15.20;;;10.02;;
18610;SDS011;9435;52.122;5.502;2023-05-13T10:37:53;18.10;;;10.23;;
18610;SDS011;9435;52.122;5.502;2023-05-13T10:40:43;15.73;;;10.45;;
18610;SDS011;9435;52.122;5.502;2023-05-13T10:43:24;16.98;;;10.55;;
18610;SDS011;9435;52.122;5.502;2023-05-13T10:45:55;12.35;;;8.88;;
18610;SDS011;9435;52.122;5.502;2023-05-13T10:48:24;14.98;;;10.15;;
18610;SDS011;9435;52.122;5.502;2023-05-13T10:50:54;15.90;;;10.15;;
18610;SDS011;9435;52.122;5.502;2023-05-13T10:53:22;17.63;;;9.27;;
18610;SDS011;9435;52.122;5.502;2023-05-13T10:55:51;15.55;;;9.10;;
18610;SDS011;9435;52.122;5.502;2023-05-13T10:58:20;12.55;;;8.90;;
18610;SDS011;9435;52.122;5.502;2023-05-13T11:00:53;12.95;;;8.85;;
18610;SDS011;9435;52.122;5.502;2023-05-13T11:03:40;13.70;;;9.18;;
18610;SDS011;9435;52.122;5.502;2023-05-13T11:06:15;14.75;;;9.25;;
18610;SDS011;9435;52.122;5.502;2023-05-13T11:08:44;12.50;;;9.05;;
18610;SDS011;9435;52.122;5.502;2023-05-13T11:11:22;12.40;;;9.27;;
18610;SDS011;9435;52.122;5.502;2023-05-13T11:13:56;15.95;;;9.60;;
18610;SDS011;9435;52.122;5.502;2023-05-13T11:16:43;11.18;;;8.45;;
18610;SDS011;9435;52.122;5.502;2023-05-13T11:19:19;11.98;;;8.10;;
18610;SDS011;9435;52.122;5.502;2023-05-13T11:21:48;13.43;;;8.45;;
18610;SDS011;9435;52.122;5.502;2023-05-13T11:24:17;10.05;;;7.68;;
18610;SDS011;9435;52.122;5.502;2023-05-13T11:26:46;12.75;;;7.72;;
18610;SDS011;9435;52.122;5.502;2023-05-13T11:29:14;15.27;;;7.10;;
18610;SDS011;9435;52.122;5.502;2023-05-13T11:31:52;11.18;;;7.57;;
18610;SDS011;9435;52.122;5.502;2023-05-13T11:34:22;11.98;;;7.50;;
18610;SDS011;9435;52.122;5.502;2023-05-13T11:36:51;12.18;;;6.45;;
18610;SDS011;9435;52.122;5.502;2023-05-13T11:39:22;11.65;;;7.00;;
18610;SDS011;9435;52.122;5.502;2023-05-13T11:41:51;13.65;;;6.95;;
18610;SDS011;9435;52.122;5.502;2023-05-13T11:44:19;10.57;;;6.75;;
18610;SDS011;9435;52.122;5.502;2023-05-13T11:46:53;12.70;;;6.63;;
18610;SDS011;9435;52.122;5.502;2023-05-13T11:49:36;10.50;;;6.40;;
18610;SDS011;9435;52.122;5.502;2023-05-13T11:52:05;10.10;;;6.32;;
18610;SDS011;9435;52.122;5.502;2023-05-13T11:54:40;8.68;;;6.05;;
18610;SDS011;9435;52.122;5.502;2023-05-13T11:57:19;7.82;;;5.30;;
18610;SDS011;9435;52.122;5.502;2023-05-13T11:59:51;8.32;;;5.68;;
18610;SDS011;9435;52.122;5.502;2023-05-13T12:02:19;10.95;;;5.97;;
18610;SDS011;9435;52.122;5.502;2023-05-13T12:04:48;8.75;;;6.30;;
18610;SDS011;9435;52.122;5.502;2023-05-13T12:07:18;9.60;;;5.80;;
18610;SDS011;9435;52.122;5.502;2023-05-13T12:09:46;10.00;;;5.40;;
18610;SDS011;9435;52.122;5.502;2023-05-13T12:12:13;10.45;;;5.75;;
18610;SDS011;9435;52.122;5.502;2023-05-13T12:14:42;9.13;;;5.40;;
18610;SDS011;9435;52.122;5.502;2023-05-13T12:17:10;9.38;;;4.78;;
18610;SDS011;9435;52.122;5.502;2023-05-13T12:19:38;6.57;;;5.18;;
18610;SDS011;9435;52.122;5.502;2023-05-13T12:22:07;11.85;;;5.07;;
18610;SDS011;9435;52.122;5.502;2023-05-13T12:24:34;11.43;;;5.30;;
18610;SDS011;9435;52.122;5.502;2023-05-13T12:27:04;7.53;;;4.72;;
18610;SDS011;9435;52.122;5.502;2023-05-13T12:29:38;7.35;;;4.55;;
18610;SDS011;9435;52.122;5.502;2023-05-13T12:32:06;10.85;;;4.60;;
18610;SDS011;9435;52.122;5.502;2023-05-13T12:34:35;8.68;;;4.90;;
18610;SDS011;9435;52.122;5.502;2023-05-13T12:37:10;8.43;;;4.45;;
18610;SDS011;9435;52.122;5.502;2023-05-13T12:39:38;7.03;;;4.05;;
18610;SDS011;9435;52.122;5.502;2023-05-13T12:42:06;9.27;;;4.13;;
18610;SDS011;9435;52.122;5.502;2023-05-13T12:44:40;8.80;;;4.40;;
18610;SDS011;9435;52.122;5.502;2023-05-13T12:47:09;9.70;;;4.72;;
18610;SDS011;9435;52.122;5.502;2023-05-13T12:49:49;7.60;;;4.60;;
18610;SDS011;9435;52.122;5.502;2023-05-13T12:52:19;6.95;;;4.20;;
18610;SDS011;9435;52.122;5.502;2023-05-13T12:54:47;9.60;;;4.47;;
18610;SDS011;9435;52.122;5.502;2023-05-13T12:57:14;6.63;;;4.38;;
18610;SDS011;9435;52.122;5.502;2023-05-13T12:59:42;6.90;;;4.30;;
18610;SDS011;9435;52.122;5.502;2023-05-13T13:02:10;6.93;;;4.15;;
18610;SDS011;9435;52.122;5.502;2023-05-13T13:04:37;9.20;;;4.30;;
18610;SDS011;9435;52.122;5.502;2023-05-13T13:07:05;7.32;;;4.25;;
18610;SDS011;9435;52.122;5.502;2023-05-13T13:09:38;8.68;;;4.18;;
18610;SDS011;9435;52.122;5.502;2023-05-13T13:12:05;8.52;;;3.88;;
18610;SDS011;9435;52.122;5.502;2023-05-13T13:14:32;7.25;;;4.00;;
18610;SDS011;9435;52.122;5.502;2023-05-13T13:16:59;10.60;;;3.83;;
18610;SDS011;9435;52.122;5.502;2023-05-13T13:19:26;7.63;;;4.50;;
18610;SDS011;9435;52.122;5.502;2023-05-13T13:21:53;6.70;;;4.05;;
18610;SDS011;9435;52.122;5.502;2023-05-13T13:24:20;7.82;;;4.25;;
18610;SDS011;9435;52.122;5.502;2023-05-13T13:26:49;7.75;;;3.90;;
18610;SDS011;9435;52.122;5.502;2023-05-13T13:29:17;8.82;;;3.80;;
18610;SDS011;9435;52.122;5.502;2023-05-13T13:31:44;5.25;;;3.95;;
18610;SDS011;9435;52.122;5.502;2023-05-13T13:34:12;8.15;;;4.00;;
18610;SDS011;9435;52.122;5.502;2023-05-13T13:36:39;9.48;;;4.10;;
18610;SDS011;9435;52.122;5.502;2023-05-13T13:39:06;7.90;;;3.75;;
18610;SDS011;9435;52.122;5.502;2023-05-13T13:41:33;9.07;;;4.00;;
18610;SDS011;9435;52.122;5.502;2023-05-13T13:44:01;6.63;;;3.63;;
18610;SDS011;9435;52.122;5.502;2023-05-13T13:46:28;7.30;;;4.10;;
18610;SDS011;9435;52.122;5.502;2023-05-13T13:48:55;9.13;;;4.13;;
18610;SDS011;9435;52.122;5.502;2023-05-13T13:51:23;6.38;;;3.50;;
18610;SDS011;9435;52.122;5.502;2023-05-13T13:53:50;5.70;;;3.40;;
18610;SDS011;9435;52.122;5.502;2023-05-13T13:56:17;7.22;;;3.70;;
18610;SDS011;9435;52.122;5.502;2023-05-13T13:58:44;6.93;;;3.50;;
18610;SDS011;9435;52.122;5.502;2023-05-13T14:01:12;9.15;;;3.25;;
18610;SDS011;9435;52.122;5.502;2023-05-13T14:03:39;5.72;;;3.50;;
18610;SDS011;9435;52.122;5.502;2023-05-13T14:06:06;6.07;;;3.70;;
18610;SDS011;9435;52.122;5.502;2023-05-13T14:08:33;8.48;;;3.90;;
18610;SDS011;9435;52.122;5.502;2023-05-13T14:11:00;6.18;;;3.53;;
18610;SDS011;9435;52.122;5.502;2023-05-13T14:13:27;8.27;;;3.60;;
18610;SDS011;9435;52.122;5.502;2023-05-13T14:15:54;9.55;;;3.60;;
18610;SDS011;9435;52.122;5.502;2023-05-13T14:18:23;7.68;;;3.30;;
18610;SDS011;9435;52.122;5.502;2023-05-13T14:20:50;5.75;;;3.28;;
18610;SDS011;9435;52.122;5.502;2023-05-13T14:23:17;6.03;;;3.10;;
18610;SDS011;9435;52.122;5.502;2023-05-13T14:25:44;7.00;;;3.45;;
18610;SDS011;9435;52.122;5.502;2023-05-13T14:28:11;5.88;;;3.50;;
18610;SDS011;9435;52.122;5.502;2023-05-13T14:30:39;6.45;;;3.60;;
18610;SDS011;9435;52.122;5.502;2023-05-13T14:33:06;8.57;;;3.42;;
18610;SDS011;9435;52.122;5.502;2023-05-13T14:35:34;6.85;;;3.60;;
18610;SDS011;9435;52.122;5.502;2023-05-13T14:38:01;6.15;;;3.40;;
18610;SDS011;9435;52.122;5.502;2023-05-13T14:40:28;7.50;;;3.53;;
18610;SDS011;9435;52.122;5.502;2023-05-13T14:42:58;5.63;;;3.28;;
18610;SDS011;9435;52.122;5.502;2023-05-13T14:45:25;7.50;;;3.70;;
18610;SDS011;9435;52.122;5.502;2023-05-13T14:47:52;6.50;;;3.80;;
18610;SDS011;9435;52.122;5.502;2023-05-13T14:50:20;6.85;;;3.30;;